Time;durP1;ratioP1;P1;durP2;ratioP2;P2;SDS_P1;SDS_P2;PMS_P1;PMS_P2;Temp;Humidity;BMP_temperature;BMP_pressure;BME280_temperature;BME280_humidity;BME280_pressure;Samples;Min_cycle;Max_cycle;Signal;HPM_P1;HPM_P2
2021/08/02 00:01:09;;;;;;;0.20;0.20;;;;;;;11.47;96.10;100282.31;5025034;28;20037;-89
2021/08/02 00:03:49;;;;;;;0.20;0.20;;;;;;;11.45;96.00;100275.53;5019061;28;20049;-88
2021/08/02 00:06:24;;;;;;;0.10;0.10;;;;;;;11.48;95.54;100278.47;5032477;28;20045;-87
2021/08/02 00:09:03;;;;;;;0.10;0.10;;;;;;;11.46;96.11;100272.53;5030987;28;20056;-89
2021/08/02 00:11:40;;;;;;;0.10;0.10;;;;;;;11.51;96.33;100286.06;5026800;28;20049;-88
2021/08/02 00:14:18;;;;;;;0.20;0.20;;;;;;;11.38;96.34;100276.72;5028434;28;20454;-88
2021/08/02 00:16:51;;;;;;;0.20;0.20;;;;;;;11.46;95.99;100282.59;5018522;28;20121;-87
2021/08/02 00:19:26;;;;;;;0.20;0.20;;;;;;;11.45;96.56;100275.53;5023282;28;20053;-88
2021/08/02 00:21:56;;;;;;;0.10;0.10;;;;;;;11.35;96.62;100277.31;5032102;28;20412;-87
2021/08/02 00:24:30;;;;;;;0.20;0.20;;;;;;;11.46;96.96;100283.44;5026342;28;20497;-88
2021/08/02 00:27:03;;;;;;;0.10;0.10;;;;;;;11.39;96.39;100269.34;5030367;28;20064;-88
2021/08/02 00:29:40;;;;;;;0.20;0.20;;;;;;;11.38;96.42;100284.91;5031910;28;20496;-88
2021/08/02 00:32:18;;;;;;;0.20;0.20;;;;;;;11.38;96.28;100274.00;5028781;28;20049;-88
2021/08/02 00:34:51;;;;;;;0.20;0.20;;;;;;;11.42;96.88;100274.22;5030846;28;20398;-88
2021/08/02 00:37:30;;;;;;;0.10;0.10;;;;;;;11.40;96.73;100276.41;5030311;28;20064;-87
2021/08/02 00:40:26;;;;;;;0.10;0.10;;;;;;;11.34;96.88;100278.41;5030848;28;20052;-88
2021/08/02 00:42:59;;;;;;;0.10;0.10;;;;;;;11.35;96.77;100280.03;5021312;28;20425;-89
2021/08/02 00:45:35;;;;;;;0.17;0.17;;;;;;;11.34;96.85;100280.34;5041845;28;20072;-87
2021/08/02 00:48:11;;;;;;;0.20;0.20;;;;;;;11.32;97.04;100277.88;5029931;28;20427;-88
2021/08/02 00:50:47;;;;;;;0.20;0.20;;;;;;;11.27;97.06;100282.59;5039268;28;20037;-88
2021/08/02 00:53:22;;;;;;;0.10;0.10;;;;;;;11.27;97.99;100283.44;5036875;28;20413;-88
2021/08/02 00:55:58;;;;;;;0.10;0.10;;;;;;;11.32;97.30;100291.50;5030372;28;20528;-89
2021/08/02 00:58:33;;;;;;;0.10;0.10;;;;;;;11.35;97.38;100288.22;5029798;28;20512;-87
2021/08/02 01:01:11;;;;;;;0.13;0.13;;;;;;;11.42;98.14;100289.75;5029426;28;20045;-85
2021/08/02 01:03:46;;;;;;;0.20;0.20;;;;;;;11.43;96.74;100286.72;5026233;28;20049;-88
2021/08/02 01:06:21;;;;;;;0.10;0.10;;;;;;;11.50;97.52;100289.09;5011188;28;20050;-87
2021/08/02 01:08:51;;;;;;;0.10;0.10;;;;;;;11.53;98.19;100286.59;5031521;28;20052;-89
2021/08/02 01:11:26;;;;;;;0.20;0.20;;;;;;;11.61;96.52;100289.75;5029885;28;20401;-88
2021/08/02 01:14:04;;;;;;;0.13;0.13;;;;;;;11.60;96.71;100285.38;5031260;28;20065;-87
2021/08/02 01:16:41;;;;;;;0.13;0.13;;;;;;;11.67;97.22;100294.81;5024918;28;20053;-87
2021/08/02 01:19:15;;;;;;;0.20;0.20;;;;;;;11.73;96.09;100290.91;5030070;28;20498;-88
2021/08/02 01:21:58;;;;;;;0.20;0.20;;;;;;;11.67;96.74;100292.09;5029041;28;20053;-88
2021/08/02 01:24:37;;;;;;;0.20;0.20;;;;;;;11.71;95.66;100284.13;5019970;28;20034;-88
2021/08/02 01:27:44;;;;;;;0.17;0.17;;;;;;;11.72;95.75;100286.56;5027765;28;20421;-88
2021/08/02 01:30:23;;;;;;;0.20;0.20;;;;;;;11.70;96.02;100283.31;5034042;28;20052;-88
2021/08/02 01:32:59;;;;;;;0.20;0.20;;;;;;;11.78;96.37;100281.84;5032516;28;20048;-89
2021/08/02 01:35:28;;;;;;;0.20;0.20;;;;;;;11.72;97.09;100283.84;5034158;28;20382;-88
2021/08/02 01:38:04;;;;;;;0.13;0.13;;;;;;;11.74;96.25;100289.78;5033399;28;20060;-89
2021/08/02 01:40:40;;;;;;;0.20;0.20;;;;;;;11.70;95.91;100283.31;5033138;28;20518;-88
2021/08/02 01:43:13;;;;;;;0.20;0.20;;;;;;;11.69;96.24;100289.88;5029302;28;20045;-88
2021/08/02 01:45:54;;;;;;;0.20;0.20;;;;;;;11.67;96.23;100286.66;5034309;28;20194;-89
2021/08/02 01:48:35;;;;;;;0.15;0.15;;;;;;;11.74;96.01;100299.91;5030291;28;20050;-89
2021/08/02 01:51:13;;;;;;;0.20;0.20;;;;;;;11.90;95.59;100295.81;5023252;28;20399;-88
2021/08/02 01:53:55;;;;;;;0.20;0.20;;;;;;;11.71;95.78;100292.28;5034178;28;20040;-88
2021/08/02 01:56:35;;;;;;;0.15;0.15;;;;;;;11.80;96.12;100292.44;5033388;28;20041;-88
2021/08/02 01:59:12;;;;;;;0.20;0.20;;;;;;;11.83;96.02;100292.66;5047217;28;20054;-88
2021/08/02 02:01:54;;;;;;;0.20;0.20;;;;;;;11.69;96.76;100294.53;5028317;28;20057;-89
2021/08/02 02:04:31;;;;;;;0.17;0.17;;;;;;;11.64;96.00;100286.41;5032655;28;20050;-89
2021/08/02 02:07:10;;;;;;;0.20;0.20;;;;;;;11.87;95.62;100298.31;5033177;28;20053;-89
2021/08/02 02:09:59;;;;;;;0.20;0.20;;;;;;;11.63;95.92;100288.34;5027985;28;20057;-88
2021/08/02 02:12:37;;;;;;;0.17;0.17;;;;;;;11.70;96.44;100299.66;5023314;28;20066;-88
2021/08/02 02:15:12;;;;;;;0.10;0.10;;;;;;;11.67;97.18;100307.63;5029009;28;20061;-88
2021/08/02 02:17:50;;;;;;;0.20;0.20;;;;;;;11.68;95.79;100309.25;5033239;28;20512;-88
2021/08/02 02:20:25;;;;;;;0.20;0.20;;;;;;;11.61;97.15;100303.38;5032996;28;20443;-88
2021/08/02 02:22:59;;;;;;;0.10;0.10;;;;;;;11.66;97.29;100306.81;5033075;28;20509;-88
2021/08/02 02:25:34;;;;;;;0.10;0.10;;;;;;;11.59;97.63;100311.84;5031974;28;20033;-88
2021/08/02 02:28:20;;;;;;;0.10;0.10;;;;;;;11.64;97.05;100306.31;5031383;28;20056;-88
2021/08/02 02:30:55;;;;;;;0.10;0.10;;;;;;;11.71;96.55;100309.47;5041070;28;20060;-87
2021/08/02 02:33:32;;;;;;;0.10;0.10;;;;;;;11.63;96.46;100296.53;5022055;28;20490;-88
2021/08/02 02:36:07;;;;;;;0.13;0.13;;;;;;;11.71;96.20;100305.91;5034067;28;20041;-88
2021/08/02 02:38:41;;;;;;;0.10;0.10;;;;;;;11.69;96.33;100310.88;5031032;28;20160;-88
2021/08/02 02:41:15;;;;;;;0.10;0.10;;;;;;;11.68;95.88;100310.06;5016864;28;20060;-88
2021/08/02 02:43:55;;;;;;;0.20;0.20;;;;;;;11.66;96.45;100309.56;5042679;28;20057;-88
2021/08/02 02:46:33;;;;;;;0.17;0.17;;;;;;;11.72;97.03;100321.19;5028909;28;20049;-88
2021/08/02 02:49:09;;;;;;;0.10;0.10;;;;;;;11.67;96.84;100302.16;5028506;28;24930;-88
2021/08/02 02:51:45;;;;;;;0.10;0.10;;;;;;;11.65;96.86;100310.66;5029639;28;20049;-88
2021/08/02 02:54:22;;;;;;;0.13;0.13;;;;;;;11.76;96.37;100314.03;5027947;28;20056;-88
2021/08/02 02:56:57;;;;;;;0.20;0.20;;;;;;;11.69;96.66;100319.84;5044732;28;20053;-88
2021/08/02 02:59:30;;;;;;;0.20;0.20;;;;;;;11.71;96.25;100308.66;5030865;28;20053;-88
2021/08/02 03:02:05;;;;;;;0.10;0.10;;;;;;;11.73;96.92;100314.63;5027982;28;20053;-88
2021/08/02 03:04:44;;;;;;;0.20;0.20;;;;;;;11.72;96.14;100313.00;5030492;28;20048;-88
2021/08/02 03:07:15;;;;;;;0.10;0.10;;;;;;;11.73;96.49;100315.44;5031838;28;20049;-90
2021/08/02 03:09:51;;;;;;;0.10;0.10;;;;;;;11.70;96.64;100320.69;5028001;28;20049;-88
2021/08/02 03:12:27;;;;;;;0.20;0.20;;;;;;;11.67;96.71;100313.06;5027965;28;20052;-89
2021/08/02 03:15:03;;;;;;;0.13;0.13;;;;;;;11.63;96.53;100323.78;5030012;28;20037;-87
2021/08/02 03:17:36;;;;;;;0.20;0.20;;;;;;;11.77;96.36;100328.50;5034048;28;20696;-88
2021/08/02 03:20:06;;;;;;;0.10;0.10;;;;;;;11.68;96.53;100331.88;5030527;28;20060;-88
2021/08/02 03:22:45;;;;;;;0.10;0.10;;;;;;;11.61;97.50;100325.16;5027153;28;20049;-89
2021/08/02 03:25:25;;;;;;;0.15;0.15;;;;;;;11.50;97.40;100310.88;5028538;28;20030;-88
2021/08/02 03:28:07;;;;;;;0.20;0.20;;;;;;;11.56;96.78;100310.50;5023370;28;20045;-89
2021/08/02 03:30:43;;;;;;;0.20;0.20;;;;;;;11.63;96.35;100318.31;5028089;28;20054;-88
2021/08/02 03:33:22;;;;;;;0.10;0.10;;;;;;;11.60;96.24;100316.19;5032278;28;20056;-88
2021/08/02 03:35:59;;;;;;;0.10;0.10;;;;;;;11.65;96.35;100323.47;5029840;28;20925;-89
2021/08/02 03:38:34;;;;;;;0.10;0.10;;;;;;;11.67;95.92;100324.81;5028951;28;20041;-88
2021/08/02 03:41:09;;;;;;;0.20;0.20;;;;;;;11.68;96.09;100331.06;5029991;28;20502;-88
2021/08/02 03:43:43;;;;;;;0.17;0.17;;;;;;;11.72;95.91;100323.91;5031025;28;20049;-88
2021/08/02 03:46:14;;;;;;;0.13;0.13;;;;;;;11.68;95.86;100331.88;5029914;28;20083;-88
2021/08/02 03:48:47;;;;;;;0.20;0.20;;;;;;;11.72;96.11;100332.91;5021620;28;20061;-88
2021/08/02 03:51:33;;;;;;;0.10;0.10;;;;;;;11.69;96.29;100338.94;5032276;28;20044;-87
2021/08/02 03:54:02;;;;;;;0.10;0.10;;;;;;;11.71;95.86;100338.63;5032342;28;20371;-88
2021/08/02 03:56:36;;;;;;;0.13;0.13;;;;;;;11.68;95.96;100334.59;5028715;28;20045;-87
2021/08/02 03:59:10;;;;;;;0.20;0.20;;;;;;;11.67;96.13;100343.88;5026079;28;20053;-88
2021/08/02 04:01:46;;;;;;;0.20;0.20;;;;;;;11.69;95.73;100343.59;5025838;28;20604;-89
2021/08/02 04:04:20;;;;;;;0.13;0.13;;;;;;;11.70;95.75;100343.28;5047363;28;20390;-88
2021/08/02 04:06:54;;;;;;;0.20;0.20;;;;;;;11.75;95.62;100342.38;5031125;28;20408;-87
2021/08/02 04:09:27;;;;;;;0.20;0.20;;;;;;;11.71;95.58;100331.28;5030804;28;20096;-88
2021/08/02 04:12:00;;;;;;;0.20;0.20;;;;;;;11.88;95.74;100340.84;5030115;28;20540;-87
2021/08/02 04:14:34;;;;;;;0.10;0.10;;;;;;;11.83;95.00;100333.53;5031768;28;20056;-88
2021/08/02 04:17:08;;;;;;;0.20;0.20;;;;;;;11.72;94.86;100322.00;5039975;28;20631;-88
2021/08/02 04:19:42;;;;;;;0.10;0.10;;;;;;;11.82;95.05;100334.66;5027474;28;20057;-88
2021/08/02 04:22:15;;;;;;;0.20;0.20;;;;;;;11.93;95.50;100340.75;5027204;28;20057;-89
2021/08/02 04:24:48;;;;;;;0.20;0.20;;;;;;;12.08;94.08;100334.25;5023527;28;20045;-88
2021/08/02 04:27:16;;;;;;;0.20;0.20;;;;;;;11.95;93.82;100344.03;5023109;28;20390;-89
2021/08/02 04:29:49;;;;;;;0.20;0.20;;;;;;;11.90;95.33;100338.63;5028483;28;20061;-88
2021/08/02 04:32:25;;;;;;;0.20;0.20;;;;;;;11.90;94.02;100341.34;5031114;28;20459;-88
2021/08/02 04:34:58;;;;;;;0.13;0.13;;;;;;;11.85;94.73;100344.19;5020120;28;20058;-87
2021/08/02 04:37:32;;;;;;;0.15;0.15;;;;;;;11.90;94.26;100338.63;5022541;28;20049;-89
2021/08/02 04:40:07;;;;;;;0.10;0.10;;;;;;;11.96;94.14;100342.09;5030760;28;20049;-89
2021/08/02 04:42:40;;;;;;;0.20;0.20;;;;;;;11.94;94.00;100344.31;5029501;28;20048;-88
2021/08/02 04:45:14;;;;;;;0.20;0.20;;;;;;;11.89;94.52;100350.63;5029501;28;20058;-88
2021/08/02 04:47:50;;;;;;;0.10;0.10;;;;;;;11.95;94.58;100337.78;5041643;28;20054;-89
2021/08/02 04:50:23;;;;;;;0.10;0.10;;;;;;;11.94;94.77;100353.31;5020160;28;20046;-88
2021/08/02 04:52:51;;;;;;;0.20;0.20;;;;;;;12.01;95.07;100353.72;5046513;28;20065;-89
2021/08/02 04:55:24;;;;;;;0.20;0.20;;;;;;;12.05;95.24;100364.88;5031397;28;20037;-88
2021/08/02 04:57:58;;;;;;;0.20;0.20;;;;;;;12.08;94.85;100353.34;5027049;28;20045;-88
2021/08/02 05:00:31;;;;;;;0.15;0.15;;;;;;;12.04;93.90;100361.34;5028942;28;20064;-88
2021/08/02 05:03:06;;;;;;;0.20;0.20;;;;;;;12.00;94.35;100370.41;5033631;28;20510;-88
2021/08/02 05:05:38;;;;;;;0.10;0.10;;;;;;;12.03;95.19;100364.38;5031851;28;20521;-88
2021/08/02 05:08:11;;;;;;;0.20;0.20;;;;;;;12.08;95.15;100365.09;5018857;28;20052;-88
2021/08/02 05:10:40;;;;;;;0.20;0.20;;;;;;;12.10;93.24;100361.25;5035066;28;20057;-89
2021/08/02 05:13:08;;;;;;;0.20;0.20;;;;;;;12.09;93.80;100368.63;5031689;28;20045;-88
2021/08/02 05:15:44;;;;;;;0.10;0.10;;;;;;;12.09;93.21;100368.63;5047109;28;20394;-88
2021/08/02 05:18:18;;;;;;;0.10;0.10;;;;;;;12.28;93.20;100379.50;5031799;28;20034;-88
2021/08/02 05:20:51;;;;;;;0.10;0.10;;;;;;;12.12;92.64;100348.94;5034608;28;20088;-88
2021/08/02 05:23:25;;;;;;;0.20;0.20;;;;;;;12.18;93.40;100366.84;5034426;28;20053;-88
2021/08/02 05:25:58;;;;;;;0.20;0.20;;;;;;;12.18;93.39;100366.84;5030800;28;20053;-88
2021/08/02 05:28:31;;;;;;;0.17;0.17;;;;;;;12.20;92.85;100350.97;5021112;28;20097;-89
2021/08/02 05:31:04;;;;;;;0.20;0.20;;;;;;;12.43;92.77;100362.06;5033528;28;20048;-88
2021/08/02 05:33:39;;;;;;;0.20;0.20;;;;;;;12.43;93.24;100370.25;5023001;28;20402;-91
2021/08/02 05:36:16;;;;;;;0.20;0.20;;;;;;;12.43;92.43;100370.25;5032763;28;20054;-88
2021/08/02 05:38:49;;;;;;;0.20;0.20;;;;;;;12.55;93.43;100373.31;5034692;28;20052;-88
2021/08/02 05:41:18;;;;;;;0.20;0.20;;;;;;;12.55;93.08;100375.22;5032682;28;20053;-84
2021/08/02 05:43:51;;;;;;;0.20;0.20;;;;;;;12.49;93.63;100376.44;5028010;28;20506;-87
2021/08/02 05:46:24;;;;;;;0.20;0.20;;;;;;;12.64;93.04;100389.78;5048687;28;20410;-89
2021/08/02 05:48:59;;;;;;;0.10;0.10;;;;;;;12.61;91.88;100390.41;5034858;28;20042;-88
2021/08/02 05:51:32;;;;;;;0.20;0.20;;;;;;;12.66;91.63;100397.69;5034540;28;20402;-89
2021/08/02 05:54:06;;;;;;;0.20;0.20;;;;;;;12.80;91.33;100393.06;5032823;28;20379;-88
2021/08/02 05:56:39;;;;;;;0.20;0.20;;;;;;;13.00;92.25;100389.13;5032719;28;20041;-87
2021/08/02 05:59:12;;;;;;;0.10;0.10;;;;;;;12.98;92.31;100394.09;5031213;28;20057;-89
2021/08/02 06:01:46;;;;;;;0.20;0.20;;;;;;;13.13;90.55;100383.97;5023604;28;20370;-89
2021/08/02 06:04:15;;;;;;;0.10;0.10;;;;;;;13.10;90.13;100396.31;5031670;28;20053;-88
2021/08/02 06:06:48;;;;;;;0.20;0.20;;;;;;;13.02;89.94;100388.81;5032440;28;20509;-88
2021/08/02 06:09:22;;;;;;;0.10;0.10;;;;;;;13.01;91.41;100392.66;5032864;28;20397;-87
2021/08/02 06:11:55;;;;;;;0.13;0.13;;;;;;;12.99;91.20;100392.16;5032050;28;20053;-90
2021/08/02 06:14:23;;;;;;;0.10;0.10;;;;;;;13.00;90.74;100394.59;5033055;28;20055;-89
2021/08/02 06:16:56;;;;;;;0.20;0.20;;;;;;;13.04;90.40;100401.06;5032314;28;20500;-88
2021/08/02 06:19:31;;;;;;;0.13;0.13;;;;;;;13.18;91.23;100392.06;5035330;28;20053;-89
2021/08/02 06:22:05;;;;;;;0.20;0.20;;;;;;;13.26;92.10;100388.63;5029963;28;20497;-88
2021/08/02 06:24:34;;;;;;;0.20;0.20;;;;;;;13.36;90.15;100398.56;5028146;28;20049;-89
2021/08/02 06:27:07;;;;;;;0.13;0.13;;;;;;;13.38;90.14;100393.56;5029415;28;20056;-89
2021/08/02 06:29:42;;;;;;;0.10;0.10;;;;;;;13.51;89.35;100402.91;5026665;28;20056;-88
2021/08/02 06:32:15;;;;;;;0.20;0.20;;;;;;;13.61;89.04;100405.38;5024644;28;20053;-89
2021/08/02 06:34:49;;;;;;;0.20;0.20;;;;;;;13.64;89.22;100399.31;5028663;28;20053;-89
2021/08/02 06:37:23;;;;;;;0.10;0.10;;;;;;;13.65;86.88;100397.41;5032322;28;20117;-88
2021/08/02 06:39:56;;;;;;;0.20;0.20;;;;;;;13.68;88.80;100391.31;5027284;28;20046;-89
2021/08/02 06:42:30;;;;;;;0.10;0.10;;;;;;;13.90;87.99;100393.25;5029416;28;20724;-89
2021/08/02 06:45:03;;;;;;;0.10;0.10;;;;;;;13.74;86.79;100399.09;5030930;28;20037;-90
2021/08/02 06:47:37;;;;;;;0.20;0.20;;;;;;;13.90;87.39;100406.94;5032145;28;20041;-90
2021/08/02 06:50:12;;;;;;;0.10;0.10;;;;;;;13.90;88.01;100391.31;5030143;28;20395;-89
2021/08/02 06:52:50;;;;;;;0.10;0.10;;;;;;;14.02;87.76;100409.94;5011332;28;20046;-89
2021/08/02 06:55:19;;;;;;;0.22;0.22;;;;;;;14.04;85.94;100404.94;5024108;28;20402;-89
2021/08/02 06:57:52;;;;;;;0.10;0.10;;;;;;;14.08;89.29;100411.41;5008900;28;21379;-88
2021/08/02 07:00:20;;;;;;;0.10;0.10;;;;;;;14.14;87.24;100417.59;5011226;28;20057;-87
2021/08/02 07:02:49;;;;;;;0.20;0.20;;;;;;;14.22;86.88;100414.09;5015061;28;20429;-86
2021/08/02 07:05:27;;;;;;;0.10;0.10;;;;;;;14.39;84.55;100418.09;5008388;28;21279;-87
2021/08/02 07:08:00;;;;;;;0.20;0.20;;;;;;;14.55;85.93;100426.72;5008214;28;20415;-88
2021/08/02 07:10:28;;;;;;;0.20;0.20;;;;;;;14.37;83.40;100423.88;5012593;28;20053;-89
2021/08/02 07:12:58;;;;;;;0.20;0.20;;;;;;;14.49;86.56;100422.53;5012295;28;20049;-89
2021/08/02 07:15:31;;;;;;;0.20;0.20;;;;;;;14.52;84.92;100417.22;5007576;28;20057;-89
2021/08/02 07:18:00;;;;;;;0.20;0.20;;;;;;;14.58;84.86;100426.94;5003134;28;20053;-86
2021/08/02 07:20:29;;;;;;;0.20;0.20;;;;;;;14.57;85.13;100424.47;5005242;28;20054;-86
2021/08/02 07:23:02;;;;;;;0.20;0.20;;;;;;;14.45;85.02;100381.25;4999576;28;20862;-88
2021/08/02 07:25:37;;;;;;;0.10;0.10;;;;;;;14.88;82.39;100418.25;5002044;28;20060;-88
2021/08/02 07:28:10;;;;;;;0.10;0.10;;;;;;;14.83;83.34;100430.16;5001724;28;20041;-89
2021/08/02 07:30:39;;;;;;;0.15;0.15;;;;;;;14.95;84.28;100427.59;5005855;28;20057;-87
2021/08/02 07:33:12;;;;;;;0.20;0.20;;;;;;;14.86;81.28;100434.16;5007987;28;20042;-86
2021/08/02 07:35:48;;;;;;;0.20;0.20;;;;;;;14.90;83.60;100432.41;5001362;28;20049;-89
2021/08/02 07:38:21;;;;;;;0.20;0.20;;;;;;;14.87;85.41;100431.13;5015642;28;20065;-86
2021/08/02 07:40:55;;;;;;;0.20;0.20;;;;;;;14.93;81.90;100431.81;5005644;28;21336;-89
2021/08/02 07:43:25;;;;;;;0.20;0.20;;;;;;;14.97;81.17;100427.31;5007561;28;20080;-88
2021/08/02 07:45:59;;;;;;;0.20;0.20;;;;;;;15.26;81.51;100428.69;5006400;28;20053;-87
2021/08/02 07:48:27;;;;;;;0.10;0.10;;;;;;;15.64;80.09;100426.19;5000833;28;20065;-87
2021/08/02 07:51:02;;;;;;;0.20;0.20;;;;;;;15.76;80.59;100433.03;4990757;28;20045;-89
2021/08/02 07:53:41;;;;;;;0.10;0.10;;;;;;;15.84;78.96;100425.94;5003411;28;20045;-88
2021/08/02 07:56:14;;;;;;;0.20;0.20;;;;;;;15.76;78.90;100424.78;5003646;28;20049;-86
2021/08/02 07:58:48;;;;;;;0.10;0.10;;;;;;;15.60;77.84;100407.97;4999329;28;20052;-86
2021/08/02 08:01:22;;;;;;;0.10;0.10;;;;;;;15.34;79.73;100416.16;4997770;28;20049;-85
2021/08/02 08:04:00;;;;;;;0.10;0.10;;;;;;;15.03;79.54;100411.53;5001600;28;20062;-88
2021/08/02 08:06:36;;;;;;;0.20;0.20;;;;;;;14.89;82.41;100422.59;5002900;28;20042;-87
2021/08/02 08:09:09;;;;;;;0.10;0.10;;;;;;;14.42;84.78;100431.97;5007061;28;20485;-90
2021/08/02 08:11:42;;;;;;;0.10;0.10;;;;;;;14.26;90.52;100445.22;5006406;28;20556;-86
2021/08/02 08:14:16;;;;;;;0.10;0.10;;;;;;;13.88;91.25;100448.28;4994319;28;20065;-87
2021/08/02 08:16:49;;;;;;;0.20;0.20;;;;;;;13.78;93.62;100457.53;4994876;28;20164;-87
2021/08/02 08:19:22;;;;;;;0.10;0.10;;;;;;;13.29;94.13;100447.31;4996206;28;20058;-85
2021/08/02 08:21:58;;;;;;;0.13;0.13;;;;;;;12.87;93.49;100466.38;4993739;28;20053;-87
2021/08/02 08:24:28;;;;;;;0.10;0.10;;;;;;;12.42;95.07;100469.59;4998662;28;20649;-86
2021/08/02 08:27:02;;;;;;;0.20;0.20;;;;;;;12.38;96.91;100455.72;5000060;28;20054;-85
2021/08/02 08:29:31;;;;;;;0.20;0.20;;;;;;;12.37;97.96;100445.94;5003073;28;20058;-84
2021/08/02 08:32:05;;;;;;;0.20;0.20;;;;;;;12.56;98.25;100467.72;4996336;28;20058;-86
2021/08/02 08:34:38;;;;;;;0.10;0.10;;;;;;;12.68;98.73;100447.34;4999281;28;20054;-86
2021/08/02 08:37:20;;;;;;;0.10;0.10;;;;;;;12.82;98.37;100461.03;5003119;28;20060;-86
2021/08/02 08:39:55;;;;;;;0.10;0.10;;;;;;;12.95;96.74;100457.50;5002793;28;20061;-86
2021/08/02 08:42:31;;;;;;;0.20;0.20;;;;;;;13.19;97.69;100460.06;4999319;28;20064;-90
2021/08/02 08:45:00;;;;;;;0.20;0.20;;;;;;;13.27;98.71;100445.69;5000385;28;20057;-86
2021/08/02 08:47:36;;;;;;;0.20;0.20;;;;;;;13.40;95.92;100457.75;4997819;28;20057;-86
2021/08/02 08:50:10;;;;;;;0.17;0.17;;;;;;;13.81;98.94;100464.31;4997768;28;20046;-84
2021/08/02 08:52:46;;;;;;;0.20;0.20;;;;;;;13.75;96.68;100466.34;4973963;28;20046;-87
2021/08/02 08:55:19;;;;;;;0.20;0.20;;;;;;;13.81;97.18;100447.91;5010909;28;20061;-86
2021/08/02 08:57:47;;;;;;;0.10;0.10;;;;;;;14.00;96.12;100455.13;5001018;28;20057;-86
2021/08/02 09:00:20;;;;;;;0.20;0.20;;;;;;;14.22;98.41;100459.84;5002418;28;20057;-86
2021/08/02 09:02:55;;;;;;;0.10;0.10;;;;;;;14.14;93.15;100452.34;5005302;28;20054;-84
2021/08/02 09:05:32;;;;;;;0.20;0.20;;;;;;;14.27;93.62;100466.00;5007873;28;20058;-86
2021/08/02 09:08:03;;;;;;;0.20;0.20;;;;;;;14.32;91.83;100465.06;5009238;28;20518;-86
2021/08/02 09:10:31;;;;;;;0.20;0.20;;;;;;;14.49;96.00;100450.69;5004935;28;20053;-84
2021/08/02 09:13:06;;;;;;;0.20;0.20;;;;;;;14.72;94.16;100447.97;5000628;28;20065;-85
2021/08/02 09:15:42;;;;;;;0.15;0.15;;;;;;;14.88;90.90;100451.13;5000607;28;20066;-84
2021/08/02 09:18:21;;;;;;;0.20;0.20;;;;;;;15.07;91.47;100454.44;5007180;28;20057;-86
2021/08/02 09:21:01;;;;;;;0.15;0.15;;;;;;;15.26;88.73;100451.44;5003369;28;20670;-88
2021/08/02 09:23:47;;;;;;;0.17;0.17;;;;;;;15.64;91.06;100456.38;5006024;28;20096;-86
2021/08/02 09:26:30;;;;;;;0.20;0.20;;;;;;;15.67;88.46;100454.13;5003383;28;20056;-87
2021/08/02 09:29:09;;;;;;;0.20;0.20;;;;;;;15.15;83.82;100469.31;5006096;28;20522;-87
2021/08/02 09:31:48;;;;;;;0.20;0.20;;;;;;;15.12;87.04;100453.47;5001519;28;20493;-87
2021/08/02 09:34:23;;;;;;;0.10;0.10;;;;;;;15.04;87.68;100460.56;5000812;28;20042;-85
2021/08/02 09:36:58;;;;;;;0.10;0.10;;;;;;;15.09;88.04;100457.69;5003150;28;21616;-87
2021/08/02 09:39:32;;;;;;;0.10;0.10;;;;;;;14.99;90.17;100465.38;5009287;28;20561;-86
2021/08/02 09:42:10;;;;;;;0.20;0.20;;;;;;;15.13;84.19;100460.56;5001473;28;20061;-85
2021/08/02 09:44:44;;;;;;;0.10;0.10;;;;;;;15.16;85.93;100461.88;5007092;28;20054;-88
2021/08/02 09:47:13;;;;;;;0.20;0.20;;;;;;;15.06;85.10;100455.53;5001239;28;20068;-87
2021/08/02 09:49:46;;;;;;;0.15;0.15;;;;;;;15.04;84.11;100467.94;5005432;28;20057;-86
2021/08/02 09:52:51;;;;;;;0.10;0.10;;;;;;;15.34;88.78;100476.47;4981723;28;20053;-86
2021/08/02 09:55:23;;;;;;;0.20;0.20;;;;;;;15.13;82.08;100447.69;5006758;28;20057;-87
2021/08/02 09:58:01;;;;;;;0.20;0.20;;;;;;;15.25;84.84;100455.31;5000316;28;20061;-85
2021/08/02 10:00:37;;;;;;;0.10;0.10;;;;;;;15.55;82.58;100452.84;4999145;28;20049;-86
2021/08/02 10:03:10;;;;;;;0.10;0.10;;;;;;;15.61;84.46;100458.97;5000392;28;20061;-87
2021/08/02 10:05:39;;;;;;;0.10;0.10;;;;;;;15.54;80.80;100445.72;5007268;28;20061;-87
2021/08/02 10:08:09;;;;;;;0.20;0.20;;;;;;;15.84;77.09;100458.88;5002864;28;20953;-86
2021/08/02 10:10:47;;;;;;;0.20;0.20;;;;;;;16.14;79.60;100455.19;5005939;28;20486;-85
2021/08/02 10:13:23;;;;;;;0.15;0.15;;;;;;;16.59;81.53;100445.75;5007443;28;21353;-86
2021/08/02 10:15:58;;;;;;;0.20;0.20;;;;;;;16.81;79.10;100452.19;5002166;28;20062;-86
2021/08/02 10:18:34;;;;;;;0.20;0.20;;;;;;;17.08;79.80;100442.75;5003180;28;20057;-89
2021/08/02 10:21:10;;;;;;;0.10;0.10;;;;;;;17.16;74.11;100449.34;5002232;28;20049;-85
2021/08/02 10:23:48;;;;;;;0.20;0.20;;;;;;;17.49;78.66;100445.94;5001171;28;21283;-86
2021/08/02 10:26:57;;;;;;;0.13;0.13;;;;;;;16.69;73.63;100463.06;5010058;28;20049;-86
2021/08/02 10:29:42;;;;;;;0.20;0.20;;;;;;;16.57;76.37;100460.97;4999879;28;20057;-86
2021/08/02 10:35:47;;;;;;;0.10;0.10;;;;;;;16.15;74.20;100458.75;5002770;28;20056;-86
2021/08/02 10:38:19;;;;;;;0.10;0.10;;;;;;;16.22;74.19;100467.28;4998253;28;20061;-87
2021/08/02 10:40:51;;;;;;;0.20;0.20;;;;;;;16.26;74.36;100471.00;5000811;28;20057;-86
2021/08/02 10:43:30;;;;;;;0.20;0.20;;;;;;;16.53;77.80;100477.31;4999477;28;20053;-88
2021/08/02 10:46:16;;;;;;;0.20;0.20;;;;;;;16.26;75.54;100465.50;5017951;28;20056;-84
2021/08/02 10:49:17;;;;;;;0.10;0.10;;;;;;;16.20;72.87;100474.22;5003003;28;20395;-87
2021/08/02 10:51:54;;;;;;;0.10;0.10;;;;;;;16.28;77.21;100473.41;4977545;28;20072;-87
2021/08/02 10:54:57;;;;;;;0.17;0.17;;;;;;;16.53;77.11;100477.31;5003886;28;20928;-86
2021/08/02 10:57:25;;;;;;;0.17;0.17;;;;;;;16.75;76.99;100475.47;5003370;28;20056;-87
2021/08/02 11:00:05;;;;;;;0.10;0.10;;;;;;;17.32;75.29;100458.66;5007778;28;20076;-86
2021/08/02 11:02:48;;;;;;;0.10;0.10;;;;;;;17.24;75.28;100462.25;5008528;28;20052;-86
2021/08/02 11:05:29;;;;;;;0.10;0.10;;;;;;;16.93;72.72;100465.25;5000951;28;20960;-87
2021/08/02 11:08:06;;;;;;;0.10;0.10;;;;;;;16.54;73.37;100462.41;5000838;28;20805;-86
2021/08/02 11:10:41;;;;;;;0.13;0.13;;;;;;;16.40;78.87;100478.28;4999703;28;20422;-86
2021/08/02 11:13:09;;;;;;;0.10;0.10;;;;;;;15.93;80.44;100482.44;4997615;28;20057;-86
2021/08/02 11:15:44;;;;;;;0.20;0.20;;;;;;;15.88;81.09;100476.31;5007392;28;20056;-86
2021/08/02 11:18:23;;;;;;;0.10;0.10;;;;;;;15.60;83.23;100474.59;4997920;28;20050;-86
2021/08/02 11:20:57;;;;;;;0.20;0.20;;;;;;;15.55;86.52;100472.03;5000941;28;21233;-85
2021/08/02 11:23:32;;;;;;;0.20;0.20;;;;;;;15.73;87.59;100481.09;4998895;28;20506;-86
2021/08/02 11:26:08;;;;;;;0.20;0.20;;;;;;;15.85;86.32;100487.94;4997421;28;20058;-88
2021/08/02 11:28:43;;;;;;;0.10;0.10;;;;;;;15.86;85.05;100490.34;5002432;28;20057;-87
2021/08/02 11:31:16;;;;;;;0.15;0.15;;;;;;;15.89;86.04;100505.38;4999530;28;20556;-87
2021/08/02 11:33:50;;;;;;;0.20;0.20;;;;;;;15.84;86.31;100517.31;5000664;28;20049;-87
2021/08/02 11:36:24;;;;;;;0.20;0.20;;;;;;;15.14;86.36;100530.72;4999866;28;20057;-85
2021/08/02 11:38:57;;;;;;;0.20;0.20;;;;;;;14.87;89.58;100524.25;5000969;28;20112;-85
2021/08/02 11:41:31;;;;;;;0.20;0.20;;;;;;;14.77;89.27;100541.78;5000873;28;20049;-87
2021/08/02 11:44:00;;;;;;;0.20;0.20;;;;;;;14.95;88.88;100531.72;5000917;28;21376;-85
2021/08/02 11:46:36;;;;;;;0.10;0.10;;;;;;;15.23;92.32;100545.28;5000602;28;20053;-86
2021/08/02 11:49:09;;;;;;;0.10;0.10;;;;;;;15.29;87.46;100541.28;5007137;28;20049;-87
2021/08/02 11:51:42;;;;;;;0.20;0.20;;;;;;;15.43;89.51;100543.13;4973037;28;20064;-86
2021/08/02 11:54:18;;;;;;;0.20;0.20;;;;;;;15.39;85.65;100545.69;4996078;28;20065;-87
2021/08/02 11:56:52;;;;;;;0.20;0.20;;;;;;;15.44;83.91;100551.03;4997903;28;20057;-87
2021/08/02 11:59:21;;;;;;;0.20;0.20;;;;;;;15.67;82.36;100541.91;5002539;28;20049;-86
2021/08/02 12:01:56;;;;;;;0.20;0.20;;;;;;;15.64;82.70;100554.34;5018257;28;20517;-86
2021/08/02 12:04:42;;;;;;;0.20;0.20;;;;;;;15.64;82.71;100544.16;5010215;28;20429;-87